Time;durP1;ratioP1;P1;durP2;ratioP2;P2;SDS_P1;SDS_P2;PMS_P1;PMS_P2;Temp;Humidity;BMP_temperature;BMP_pressure;BME280_temperature;BME280_humidity;BME280_pressure;Samples;Min_cycle;Max_cycle;Signal;HPM_P1;HPM_P2
2023/10/06 00:02:55;;;;;;;10.77;5.10;;;14.90;1.00;;;;;;20286174;29;20052;-87
2023/10/06 00:12:59;;;;;;;11.88;5.82;;;14.90;1.00;;;;;;20283249;29;21395;-86
2023/10/06 00:23:05;;;;;;;12.82;5.55;;;14.80;1.00;;;;;;20278006;29;20100;-86
2023/10/06 00:33:07;;;;;;;9.77;5.60;;;14.60;1.00;;;;;;20275446;29;20138;-85
2023/10/06 00:43:08;;;;;;;12.27;6.30;;;14.60;1.00;;;;;;20271473;29;20047;-88
2023/10/06 00:53:13;;;;;;;14.48;6.22;;;14.50;1.00;;;;;;20257176;29;20048;-89
2023/10/06 01:03:16;;;;;;;11.85;6.00;;;14.50;1.00;;;;;;20249362;29;20044;-87
2023/10/06 01:13:19;;;;;;;11.05;5.80;;;14.40;5.10;;;;;;20239742;29;20112;-86
2023/10/06 01:23:21;;;;;;;14.57;6.28;;;14.40;3.60;;;;;;20189271;29;20163;-88
2023/10/06 01:33:22;;;;;;;11.07;5.75;;;14.50;1.70;;;;;;20183449;29;20052;-88
2023/10/06 01:43:29;;;;;;;12.40;6.40;;;14.40;6.30;;;;;;20181174;29;20481;-89
2023/10/06 01:53:33;;;;;;;15.32;5.80;;;14.30;3.30;;;;;;20215596;29;20045;-87
2023/10/06 02:03:38;;;;;;;13.80;6.10;;;14.20;3.40;;;;;;20213698;29;20049;-86
2023/10/06 02:13:39;;;;;;;10.23;5.38;;;14.20;7.80;;;;;;20220937;29;20045;-87
2023/10/06 02:23:41;;;;;;;12.45;5.05;;;14.10;11.20;;;;;;20214427;29;20529;-86
2023/10/06 02:33:47;;;;;;;11.40;5.10;;;14.00;18.20;;;;;;20220827;29;20701;-86
2023/10/06 02:43:50;;;;;;;13.25;5.47;;;14.00;23.00;;;;;;20210343;29;20041;-87
2023/10/06 02:53:50;;;;;;;13.50;5.43;;;14.10;21.30;;;;;;20215953;29;20047;-87
2023/10/06 03:03:53;;;;;;;14.02;5.60;;;14.00;25.90;;;;;;20203620;29;20033;-85
2023/10/06 03:13:58;;;;;;;12.02;5.00;;;14.00;19.10;;;;;;20192471;29;20049;-85
2023/10/06 03:24:05;;;;;;;10.93;4.97;;;13.90;21.70;;;;;;20205845;29;20057;-86
2023/10/06 03:34:07;;;;;;;13.27;5.40;;;13.90;19.50;;;;;;20204525;29;20466;-86
2023/10/06 03:44:11;;;;;;;13.18;5.32;;;13.70;18.60;;;;;;20198208;29;20110;-85
2023/10/06 03:54:11;;;;;;;12.73;6.82;;;13.60;23.40;;;;;;20193296;29;20079;-85
2023/10/06 04:04:15;;;;;;;13.82;7.10;;;13.70;25.20;;;;;;20199346;29;20509;-86
2023/10/06 04:14:16;;;;;;;12.65;7.00;;;13.70;27.40;;;;;;20214063;29;20071;-85
2023/10/06 04:24:18;;;;;;;16.38;8.68;;;13.60;25.50;;;;;;20262920;29;20334;-86
2023/10/06 04:34:22;;;;;;;14.75;8.38;;;13.60;39.20;;;;;;20251070;29;20664;-84
2023/10/06 04:44:23;;;;;;;18.35;7.65;;;13.70;43.40;;;;;;20251453;29;20044;-86
2023/10/06 04:54:23;;;;;;;14.35;7.50;;;13.70;40.20;;;;;;20239262;29;20457;-86
2023/10/06 05:04:24;;;;;;;17.55;7.63;;;13.60;37.90;;;;;;20241260;29;20143;-86
2023/10/06 05:14:24;;;;;;;12.82;7.15;;;13.70;34.50;;;;;;20271722;29;20056;-86
2023/10/06 05:24:25;;;;;;;11.13;6.22;;;13.70;34.00;;;;;;20297966;29;20045;-86
2023/10/06 05:34:26;;;;;;;13.63;6.88;;;13.50;51.80;;;;;;20299761;29;20175;-86
2023/10/06 05:44:27;;;;;;;12.45;6.45;;;13.60;53.00;;;;;;20226281;29;20366;-87
2023/10/06 05:54:29;;;;;;;14.50;6.20;;;13.80;33.70;;;;;;20177162;29;20053;-86
2023/10/06 06:04:30;;;;;;;13.10;6.18;;;13.70;39.50;;;;;;20179216;29;20064;-85
2023/10/06 06:14:32;;;;;;;11.57;5.93;;;13.80;28.50;;;;;;20181950;29;20063;-86
2023/10/06 06:24:32;;;;;;;12.65;6.22;;;13.80;29.40;;;;;;20174235;29;20043;-85
2023/10/06 06:34:33;;;;;;;14.68;6.93;;;13.80;35.50;;;;;;20196826;29;20906;-86
2023/10/06 06:44:36;;;;;;;13.07;6.35;;;13.90;26.00;;;;;;20218036;29;20044;-85
2023/10/06 06:54:38;;;;;;;13.82;6.05;;;14.00;23.30;;;;;;20197757;29;20040;-86
2023/10/06 07:04:39;;;;;;;16.02;6.80;;;14.00;26.80;;;;;;20186021;29;20613;-86
2023/10/06 07:14:39;;;;;;;11.07;5.95;;;14.20;22.60;;;;;;20189649;29;20108;-86
2023/10/06 07:24:40;;;;;;;13.63;6.60;;;14.20;17.10;;;;;;20253448;29;20385;-85
2023/10/06 07:34:40;;;;;;;15.30;6.37;;;14.50;15.10;;;;;;20263657;29;20067;-87
2023/10/06 07:44:41;;;;;;;10.98;6.05;;;14.70;9.30;;;;;;20263616;29;20920;-87
2023/10/06 07:54:42;;;;;;;10.73;5.70;;;15.10;1.00;;;;;;20259750;29;20079;-86
2023/10/06 08:04:43;;;;;;;10.73;5.73;;;15.20;1.00;;;;;;20257655;29;20051;-86
2023/10/06 08:14:43;;;;;;;12.48;5.70;;;15.40;1.00;;;;;;20254945;29;21077;-86
2023/10/06 08:24:44;;;;;;;10.65;6.43;;;15.70;1.00;;;;;;20254192;29;20059;-85
2023/10/06 08:34:46;;;;;;;12.80;5.73;;;15.80;1.00;;;;;;20257356;29;20059;-86
2023/10/06 08:44:46;;;;;;;11.15;6.22;;;15.90;1.00;;;;;;20256782;29;20601;-85
2023/10/06 08:54:47;;;;;;;11.07;5.83;;;15.90;1.00;;;;;;20258509;29;20466;-85
2023/10/06 09:04:48;;;;;;;11.55;5.30;;;16.20;1.00;;;;;;20257382;29;20472;-86
2023/10/06 09:14:54;;;;;;;14.17;6.17;;;16.40;1.00;;;;;;20241642;29;20066;-86
2023/10/06 09:25:04;;;;;;;14.25;6.85;;;16.60;1.00;;;;;;20274877;29;20885;-87
2023/10/06 09:35:22;;;;;;;13.25;5.45;;;16.60;1.00;;;;;;20259634;29;20447;-86
2023/10/06 09:45:24;;;;;;;15.10;5.45;;;17.00;1.00;;;;;;20253521;29;20047;-86
2023/10/06 09:55:27;;;;;;;11.25;5.47;;;17.50;1.00;;;;;;20249999;29;20052;-86
2023/10/06 10:05:29;;;;;;;12.13;4.70;;;17.70;1.00;;;;;;20255466;29;20050;-86
2023/10/06 10:15:59;;;;;;;13.10;4.57;;;17.70;1.00;;;;;;20282706;29;20047;-85
2023/10/06 10:26:22;;;;;;;9.95;4.20;;;17.80;1.00;;;;;;20288907;29;20061;-85
2023/10/06 10:36:22;;;;;;;8.98;3.53;;;17.90;1.00;;;;;;20286496;29;20139;-85
2023/10/06 10:46:48;;;;;;;10.63;3.97;;;18.10;1.00;;;;;;20305323;29;20041;-85
2023/10/06 10:56:51;;;;;;;14.98;4.78;;;18.30;1.00;;;;;;20285970;29;20449;-85
2023/10/06 11:06:52;;;;;;;18.02;4.15;;;18.40;1.00;;;;;;20296465;29;20681;-86
2023/10/06 11:17:02;;;;;;;10.02;3.75;;;18.70;1.00;;;;;;20298855;29;20526;-87
2023/10/06 11:27:17;;;;;;;9.20;3.50;;;19.00;1.00;;;;;;20288243;29;20043;-86
2023/10/06 11:37:22;;;;;;;10.63;3.30;;;19.40;1.00;;;;;;20309571;29;20139;-84
2023/10/06 11:47:26;;;;;;;8.18;3.10;;;20.00;1.00;;;;;;20285813;29;20658;-84
2023/10/06 11:57:46;;;;;;;9.93;2.92;;;20.00;1.00;;;;;;20290340;29;20048;-83
2023/10/06 12:07:47;;;;;;;10.18;3.65;;;20.20;1.00;;;;;;20289246;29;20119;-83
2023/10/06 12:17:47;;;;;;;7.47;2.35;;;20.10;1.00;;;;;;20293791;29;20051;-83
2023/10/06 12:27:48;;;;;;;8.00;2.53;;;20.60;1.00;;;;;;20285271;29;20497;-83
2023/10/06 12:37:49;;;;;;;12.27;3.70;;;21.20;1.00;;;;;;20288540;29;20048;-83
2023/10/06 12:47:50;;;;;;;15.07;2.80;;;20.70;1.00;;;;;;20283425;29;20553;-83
2023/10/06 12:57:52;;;;;;;6.28;2.63;;;20.80;1.00;;;;;;20286922;29;20043;-83
2023/10/06 13:07:57;;;;;;;11.57;3.58;;;21.30;1.00;;;;;;20288013;29;20159;-83
2023/10/06 13:17:57;;;;;;;7.30;2.85;;;21.60;1.00;;;;;;20281649;29;20496;-83
2023/10/06 13:27:58;;;;;;;7.97;2.47;;;21.60;1.00;;;;;;20272829;29;20056;-86
2023/10/06 13:37:59;;;;;;;6.85;2.47;;;21.30;1.00;;;;;;20261805;29;20745;-85
2023/10/06 13:48:00;;;;;;;5.53;2.20;;;21.00;1.00;;;;;;20254597;29;20390;-84
2023/10/06 13:58:04;;;;;;;7.30;2.75;;;21.20;1.00;;;;;;20254268;29;20543;-86
2023/10/06 14:08:05;;;;;;;10.18;2.50;;;21.30;1.00;;;;;;20270356;29;20114;-84
2023/10/06 14:18:07;;;;;;;9.48;2.95;;;21.30;1.00;;;;;;20256201;29;20048;-87
2023/10/06 14:28:11;;;;;;;8.80;2.70;;;20.80;1.00;;;;;;20247960;29;20048;-85
2023/10/06 14:48:38;;;;;;;8.15;2.50;;;21.20;1.00;;;;;;20254816;29;20048;-84
2023/10/06 14:58:39;;;;;;;11.57;2.78;;;20.90;1.00;;;;;;20291815;29;20530;-84
2023/10/06 15:08:40;;;;;;;11.35;2.50;;;20.80;1.00;;;;;;20286925;29;20040;-83
2023/10/06 15:18:42;;;;;;;11.85;2.97;;;20.60;1.00;;;;;;20283902;29;20067;-83
2023/10/06 15:28:43;;;;;;;6.97;2.47;;;20.30;1.00;;;;;;20285960;29;20068;-84
2023/10/06 15:38:46;;;;;;;8.57;2.90;;;20.20;1.00;;;;;;20268317;29;20052;-83
2023/10/06 15:48:48;;;;;;;7.13;2.55;;;20.00;1.00;;;;;;20257205;29;20123;-85
2023/10/06 15:58:49;;;;;;;6.47;3.10;;;19.90;1.00;;;;;;20224714;29;20060;-83
2023/10/06 16:08:50;;;;;;;5.35;2.28;;;19.80;1.00;;;;;;20260262;29;20377;-82
2023/10/06 16:18:50;;;;;;;9.80;2.92;;;19.60;1.00;;;;;;20344910;29;20052;-83
2023/10/06 16:28:51;;;;;;;10.77;2.72;;;19.60;1.00;;;;;;20409320;29;20048;-83
2023/10/06 16:38:52;;;;;;;7.65;2.45;;;19.60;1.00;;;;;;20373636;29;20061;-85
2023/10/06 16:48:52;;;;;;;9.80;2.55;;;19.40;1.00;;;;;;20276067;29;20980;-85
2023/10/06 16:58:53;;;;;;;8.85;2.75;;;19.40;1.00;;;;;;20252337;29;20072;-86
2023/10/06 17:08:54;;;;;;;9.80;3.20;;;19.10;1.00;;;;;;20245315;29;20169;-89
2023/10/06 17:18:56;;;;;;;9.43;2.63;;;18.90;1.00;;;;;;20240028;29;20084;-88
2023/10/06 17:28:56;;;;;;;8.57;2.97;;;18.70;1.00;;;;;;20274432;29;20044;-87
2023/10/06 17:38:57;;;;;;;9.77;2.80;;;18.60;1.00;;;;;;20272708;29;20090;-86
2023/10/06 17:48:58;;;;;;;10.83;2.80;;;18.50;1.00;;;;;;20274145;29;20048;-86
2023/10/06 17:58:58;;;;;;;10.85;2.78;;;18.30;1.00;;;;;;20275878;29;20153;-87
2023/10/06 18:08:59;;;;;;;9.85;2.88;;;18.20;1.00;;;;;;20270795;29;20040;-89
2023/10/06 18:19:00;;;;;;;5.72;2.22;;;18.10;1.00;;;;;;20274449;29;20658;-87
2023/10/06 18:29:02;;;;;;;8.35;2.95;;;18.10;1.00;;;;;;20277998;29;20044;-90
2023/10/06 18:39:03;;;;;;;7.75;2.08;;;18.00;1.00;;;;;;20284178;29;20833;-89
2023/10/06 18:49:12;;;;;;;6.05;2.00;;;17.90;1.00;;;;;;20256653;29;20880;-89
2023/10/06 18:59:14;;;;;;;7.03;2.17;;;17.90;1.00;;;;;;20266068;29;20051;-86
2023/10/06 19:09:14;;;;;;;9.38;2.80;;;17.70;1.00;;;;;;20269782;29;20044;-87
2023/10/06 19:19:15;;;;;;;7.07;2.45;;;17.60;1.00;;;;;;20282219;29;20055;-83
2023/10/06 19:29:19;;;;;;;9.52;3.08;;;17.40;1.00;;;;;;20261812;29;20072;-84
2023/10/06 19:39:19;;;;;;;9.38;3.10;;;17.30;1.00;;;;;;20262479;29;20049;-83
2023/10/06 19:49:21;;;;;;;12.95;2.92;;;17.20;1.00;;;;;;20268622;29;20516;-84
2023/10/06 19:59:21;;;;;;;9.57;2.72;;;17.20;1.00;;;;;;20269125;29;20047;-84
2023/10/06 20:09:23;;;;;;;8.25;2.70;;;17.20;1.00;;;;;;20268744;29;20036;-86
2023/10/06 20:19:24;;;;;;;13.13;2.80;;;17.10;1.00;;;;;;20264709;29;20044;-86
2023/10/06 20:29:25;;;;;;;16.33;3.05;;;17.10;1.00;;;;;;20265472;29;20044;-87
2023/10/06 20:39:26;;;;;;;13.20;3.42;;;17.10;1.00;;;;;;20263085;29;20123;-88
2023/10/06 20:49:27;;;;;;;8.43;2.50;;;17.00;1.00;;;;;;20266705;29;20449;-86
2023/10/06 20:59:28;;;;;;;9.55;2.58;;;17.00;1.00;;;;;;20268721;29;20473;-87
2023/10/06 21:09:28;;;;;;;13.55;2.67;;;17.00;1.00;;;;;;20268203;29;20143;-87
2023/10/06 21:19:29;;;;;;;7.72;2.50;;;17.20;1.00;;;;;;20276461;29;20128;-86
2023/10/06 21:29:30;;;;;;;10.80;2.78;;;17.00;1.00;;;;;;20273981;29;20484;-83
2023/10/06 21:39:30;;;;;;;11.85;3.28;;;16.90;1.00;;;;;;20277661;29;20040;-83
2023/10/06 21:49:31;;;;;;;8.85;3.30;;;16.80;1.00;;;;;;20264658;29;20051;-83
2023/10/06 21:59:32;;;;;;;11.90;2.72;;;16.70;1.00;;;;;;20285276;29;20640;-83
2023/10/06 22:09:33;;;;;;;9.05;2.85;;;16.70;1.00;;;;;;20273774;29;20036;-87
2023/10/06 22:19:37;;;;;;;10.95;3.47;;;16.60;1.00;;;;;;20279065;29;20040;-85
2023/10/06 22:29:37;;;;;;;15.63;4.25;;;16.50;1.00;;;;;;20296449;29;20060;-86
2023/10/06 22:39:41;;;;;;;12.68;3.85;;;16.50;1.00;;;;;;20275173;29;20055;-86
2023/10/06 22:49:41;;;;;;;13.40;4.15;;;16.40;1.00;;;;;;20279375;29;20040;-85
2023/10/06 22:59:42;;;;;;;11.05;4.60;;;16.30;1.00;;;;;;20279262;29;20524;-85
2023/10/06 23:09:42;;;;;;;10.85;4.28;;;16.30;1.00;;;;;;20278349;29;20040;-86
2023/10/06 23:19:43;;;;;;;12.32;4.18;;;16.20;3.40;;;;;;20272774;29;20048;-86
2023/10/06 23:29:44;;;;;;;14.10;4.97;;;16.20;4.40;;;;;;20277674;29;20035;-85
2023/10/06 23:39:49;;;;;;;13.13;5.05;;;16.10;10.30;;;;;;20284694;29;20146;-86
2023/10/06 23:49:55;;;;;;;10.68;4.53;;;16.00;14.70;;;;;;20267636;29;20040;-85
2023/10/06 23:59:55;;;;;;;12.10;4.65;;;16.00;20.30;;;;;;20293363;29;20040;-89
